Time;durP1;ratioP1;P1;durP2;ratioP2;P2;SDS_P1;SDS_P2;PMS_P1;PMS_P2;Temp;Humidity;BMP_temperature;BMP_pressure;BME280_temperature;BME280_humidity;BME280_pressure;Samples;Min_cycle;Max_cycle;Signal;HPM_P1;HPM_P2
2023/02/04 00:01:33;;;;;;;51.17;30.38;;;;;;;2.51;100.00;101045.00;5088024;28;20049;-76
2023/02/04 00:03:58;;;;;;;51.50;30.90;;;;;;;2.40;100.00;101042.16;5089007;28;20028;-75
2023/02/04 00:06:24;;;;;;;51.03;31.90;;;;;;;2.36;100.00;101031.22;5090049;28;20143;-75
2023/02/04 00:08:50;;;;;;;57.80;31.98;;;;;;;2.28;100.00;101036.75;5089929;28;20032;-75
2023/02/04 00:11:15;;;;;;;54.95;30.52;;;;;;;2.22;100.00;101042.19;5086703;28;20043;-75
2023/02/04 00:13:41;;;;;;;57.33;32.67;;;;;;;2.18;100.00;101039.84;5089198;28;20471;-75
2023/02/04 00:16:06;;;;;;;54.83;31.00;;;;;;;2.10;100.00;101029.94;5089890;28;20028;-76
2023/02/04 00:18:32;;;;;;;63.42;36.33;;;;;;;2.09;100.00;101041.13;5089061;28;20039;-75
2023/02/04 00:20:57;;;;;;;59.08;35.42;;;;;;;2.04;100.00;101026.84;5087046;28;20028;-75
2023/02/04 00:23:23;;;;;;;71.68;38.10;;;;;;;1.98;100.00;101038.25;5088684;28;20063;-75
2023/02/04 00:25:48;;;;;;;55.22;34.13;;;;;;;1.97;100.00;101037.44;5079816;28;20112;-75
2023/02/04 00:28:14;;;;;;;56.92;32.72;;;;;;;1.96;100.00;101045.22;5089047;28;20032;-75
2023/02/04 00:30:39;;;;;;;65.90;34.83;;;;;;;1.93;100.00;101060.78;5088393;28;20075;-75
2023/02/04 00:33:04;;;;;;;63.92;35.78;;;;;;;1.91;100.00;101049.75;5083825;28;20032;-75
2023/02/04 00:35:30;;;;;;;61.80;36.15;;;;;;;1.85;100.00;101037.22;5087160;28;20036;-75
2023/02/04 00:37:55;;;;;;;63.22;36.10;;;;;;;1.80;100.00;101031.47;5071438;28;20142;-75
2023/02/04 00:40:21;;;;;;;65.45;36.35;;;;;;;1.77;100.00;101040.16;5088492;28;20020;-75
2023/02/04 00:42:46;;;;;;;70.47;39.00;;;;;;;1.76;100.00;101043.66;5081313;28;20027;-75
2023/02/04 00:45:12;;;;;;;67.47;37.05;;;;;;;1.75;100.00;101043.72;5089418;28;20501;-75
2023/02/04 00:47:38;;;;;;;60.53;33.47;;;;;;;2.07;100.00;101047.25;5070424;28;20324;-75
2023/02/04 00:50:04;;;;;;;64.32;31.83;;;;;;;2.38;100.00;101043.97;5071220;28;20077;-75
2023/02/04 00:52:30;;;;;;;58.92;31.08;;;;;;;2.40;100.00;101042.16;5086432;28;20024;-75
2023/02/04 00:54:55;;;;;;;60.53;32.70;;;;;;;2.41;100.00;101036.94;5088424;28;20127;-75
2023/02/04 00:57:21;;;;;;;51.83;30.85;;;;;;;2.31;100.00;101028.06;5064725;28;20036;-75
2023/02/04 00:59:46;;;;;;;57.55;30.98;;;;;;;2.11;100.00;101017.94;5088426;28;20034;-75
2023/02/04 01:02:12;;;;;;;58.20;32.72;;;;;;;2.00;100.00;101016.72;5089261;28;20035;-75
2023/02/04 01:04:37;;;;;;;50.13;29.92;;;;;;;1.91;100.00;101017.16;5068603;28;20047;-75
2023/02/04 01:07:03;;;;;;;60.60;31.73;;;;;;;1.85;100.00;101012.38;5088697;28;20034;-76
2023/02/04 01:09:28;;;;;;;55.08;32.55;;;;;;;1.78;100.00;101011.00;5088519;28;20050;-75
2023/02/04 01:11:54;;;;;;;58.42;32.67;;;;;;;1.74;100.00;100993.25;5087499;28;20063;-75
2023/02/04 01:14:19;;;;;;;51.60;30.52;;;;;;;1.68;100.00;101009.78;5089207;28;20063;-75
2023/02/04 01:16:45;;;;;;;61.83;32.97;;;;;;;1.66;100.00;101007.28;5088667;28;20491;-75
2023/02/04 01:19:10;;;;;;;59.95;32.78;;;;;;;1.59;100.00;101023.91;5070687;28;20475;-75
2023/02/04 01:21:36;;;;;;;63.47;36.00;;;;;;;1.46;100.00;101012.53;5083507;28;20082;-75
2023/02/04 01:24:02;;;;;;;63.25;34.22;;;;;;;1.43;100.00;101004.16;5087021;28;20051;-75
2023/02/04 01:26:28;;;;;;;67.57;37.80;;;;;;;1.43;100.00;101006.72;5085625;28;20028;-75
2023/02/04 01:28:53;;;;;;;66.65;38.35;;;;;;;1.44;100.00;101010.94;5088575;28;20073;-74
2023/02/04 01:31:19;;;;;;;71.53;40.58;;;;;;;1.43;100.00;101014.41;5088993;28;20051;-75
2023/02/04 01:33:44;;;;;;;75.32;41.22;;;;;;;1.43;100.00;101015.25;5086123;28;20036;-75
2023/02/04 01:36:10;;;;;;;74.10;42.40;;;;;;;1.57;100.00;101022.31;5068026;28;20032;-75
2023/02/04 01:38:36;;;;;;;74.55;40.90;;;;;;;1.53;100.00;101008.78;5069656;28;20097;-75
2023/02/04 01:41:03;;;;;;;65.80;35.38;;;;;;;1.47;100.00;101027.03;5088717;28;20036;-75
2023/02/04 01:43:29;;;;;;;72.03;41.13;;;;;;;1.44;100.00;101013.50;5065178;28;20138;-75
2023/02/04 01:45:58;;;;;;;72.72;41.78;;;;;;;1.43;100.00;101002.41;5089053;28;20040;-75
2023/02/04 01:48:24;;;;;;;69.45;40.33;;;;;;;1.39;100.00;101008.63;5069801;28;20036;-75
2023/02/04 01:50:53;;;;;;;74.75;40.00;;;;;;;1.37;100.00;100999.34;5086520;28;20530;-76
2023/02/04 01:53:24;;;;;;;72.28;39.85;;;;;;;1.31;100.00;100992.75;5068490;28;20093;-75
2023/02/04 01:55:51;;;;;;;72.60;39.17;;;;;;;1.29;100.00;101008.22;5083048;28;20044;-75
2023/02/04 01:58:17;;;;;;;77.38;41.13;;;;;;;1.40;100.00;101004.31;5085834;28;20060;-75
2023/02/04 02:00:43;;;;;;;88.78;45.42;;;;;;;1.37;100.00;101009.59;5069788;28;20055;-75
2023/02/04 02:03:10;;;;;;;80.03;40.65;;;;;;;1.32;100.00;101010.66;5088409;28;20127;-75
2023/02/04 02:05:48;;;;;;;78.13;40.92;;;;;;;1.25;100.00;101011.00;5086671;28;20547;-75
2023/02/04 02:08:15;;;;;;;78.93;41.00;;;;;;;1.26;100.00;101003.22;5086839;28;20444;-76
2023/02/04 02:10:43;;;;;;;79.95;39.17;;;;;;;1.23;100.00;101011.06;5091560;28;20024;-76
2023/02/04 02:13:14;;;;;;;70.70;38.88;;;;;;;1.19;100.00;101012.13;5071591;28;20031;-76
2023/02/04 02:15:40;;;;;;;73.57;37.92;;;;;;;1.19;100.00;101031.81;5090598;28;20057;-75
2023/02/04 02:18:06;;;;;;;78.40;39.75;;;;;;;1.28;100.00;101026.25;5069158;28;20024;-75
2023/02/04 02:20:32;;;;;;;72.80;37.60;;;;;;;1.30;100.00;101020.16;5090283;28;20480;-75
2023/02/04 02:23:19;;;;;;;66.10;37.55;;;;;;;1.26;100.00;101016.06;5074040;28;20069;-75
2023/02/04 02:25:46;;;;;;;66.93;37.38;;;;;;;1.33;100.00;101019.19;5091106;28;20376;-76
2023/02/04 02:28:18;;;;;;;74.07;36.83;;;;;;;1.40;100.00;101019.72;5090397;28;20036;-75
2023/02/04 02:30:44;;;;;;;66.30;34.22;;;;;;;1.86;100.00;101033.75;5090533;28;20048;-75
2023/02/04 02:33:13;;;;;;;60.75;33.30;;;;;;;2.06;100.00;101025.88;5091906;28;20024;-75
2023/02/04 02:35:42;;;;;;;60.80;30.90;;;;;;;2.05;100.00;101023.38;5090894;28;20439;-75
2023/02/04 02:38:09;;;;;;;57.85;30.35;;;;;;;2.02;100.00;101024.34;5085925;28;20498;-75
2023/02/04 02:40:35;;;;;;;59.47;29.42;;;;;;;2.10;100.00;101031.69;5088134;28;20028;-75
2023/02/04 02:43:00;;;;;;;58.95;29.40;;;;;;;2.17;100.00;101017.63;5065581;28;20043;-75
2023/02/04 02:45:29;;;;;;;56.17;30.00;;;;;;;2.16;100.00;101027.06;5090592;28;20024;-75
2023/02/04 02:47:57;;;;;;;53.30;28.65;;;;;;;2.04;100.00;101027.69;5086272;28;20448;-75
2023/02/04 02:50:26;;;;;;;54.38;28.20;;;;;;;1.77;100.00;101019.63;5089291;28;20031;-75
2023/02/04 02:52:52;;;;;;;56.97;30.77;;;;;;;1.60;100.00;101028.13;5091566;28;20088;-75
2023/02/04 02:55:21;;;;;;;56.50;30.38;;;;;;;1.47;100.00;101028.78;5073436;28;20040;-75
2023/02/04 02:57:48;;;;;;;65.00;32.28;;;;;;;1.42;100.00;101025.63;5089195;28;20039;-75
2023/02/04 03:00:18;;;;;;;63.47;32.08;;;;;;;1.34;100.00;101018.28;5090894;28;20024;-75
2023/02/04 03:02:53;;;;;;;58.72;33.42;;;;;;;1.29;100.00;101023.63;5072882;28;20119;-75
2023/02/04 03:05:19;;;;;;;63.28;33.67;;;;;;;1.32;100.00;101009.81;5073231;28;20483;-75
2023/02/04 03:07:45;;;;;;;65.18;33.92;;;;;;;1.22;100.00;101003.44;5089184;28;20043;-75
2023/02/04 03:10:10;;;;;;;64.18;33.92;;;;;;;1.18;100.00;101010.47;5085871;28;20040;-75
2023/02/04 03:12:36;;;;;;;60.92;34.10;;;;;;;1.21;100.00;101018.00;5090444;28;20149;-74
2023/02/04 03:15:03;;;;;;;61.83;32.70;;;;;;;1.24;100.00;101009.34;5085523;28;20024;-75
2023/02/04 03:17:29;;;;;;;60.67;32.42;;;;;;;1.26;100.00;101012.66;5089602;28;20039;-75
2023/02/04 03:19:55;;;;;;;59.65;31.33;;;;;;;1.22;100.00;101021.41;5071615;28;20122;-75
2023/02/04 03:22:20;;;;;;;62.05;31.23;;;;;;;1.15;100.00;101035.44;5097701;28;20182;-75
2023/02/04 03:24:46;;;;;;;63.17;32.83;;;;;;;1.12;100.00;101004.78;5090124;28;20035;-75
2023/02/04 03:27:13;;;;;;;55.58;29.45;;;;;;;1.12;100.00;101013.31;5072936;28;20036;-75
2023/02/04 03:29:44;;;;;;;59.72;31.75;;;;;;;1.11;100.00;101010.81;5088037;28;20028;-75
2023/02/04 03:32:10;;;;;;;56.00;31.63;;;;;;;1.09;100.00;101015.19;5091006;28;20117;-75
2023/02/04 03:34:35;;;;;;;58.25;29.90;;;;;;;1.24;100.00;101005.03;5089956;28;20209;-75
2023/02/04 03:37:01;;;;;;;54.88;30.42;;;;;;;1.58;100.00;101009.38;5090561;28;20554;-75
2023/02/04 03:39:26;;;;;;;52.92;28.63;;;;;;;1.74;100.00;101006.91;5088119;28;20116;-75
2023/02/04 03:41:51;;;;;;;54.85;29.10;;;;;;;1.81;100.00;101031.41;5089115;28;20032;-75
2023/02/04 03:44:17;;;;;;;48.15;27.40;;;;;;;1.85;100.00;101030.34;5090007;28;20032;-75
2023/02/04 03:46:43;;;;;;;48.30;26.75;;;;;;;1.68;100.00;101022.63;5063722;28;20040;-75
2023/02/04 03:49:08;;;;;;;49.05;27.02;;;;;;;1.53;100.00;101034.47;5090611;28;20439;-75
2023/02/04 03:51:34;;;;;;;51.83;28.52;;;;;;;1.56;100.00;101028.34;5089965;28;20505;-75
2023/02/04 03:53:59;;;;;;;54.33;28.58;;;;;;;1.58;100.00;101029.09;5070486;28;20040;-75
2023/02/04 03:56:25;;;;;;;55.15;27.50;;;;;;;1.76;100.00;101025.66;5071660;28;20107;-74
2023/02/04 03:58:50;;;;;;;48.13;26.70;;;;;;;2.08;100.00;101020.66;5088646;28;21229;-75
2023/02/04 04:01:16;;;;;;;49.35;24.20;;;;;;;2.33;100.00;101023.66;5088928;28;20115;-75
2023/02/04 04:03:41;;;;;;;45.35;24.80;;;;;;;2.39;100.00;101043.06;5089439;28;20140;-75
2023/02/04 04:06:08;;;;;;;42.65;24.08;;;;;;;2.36;100.00;101028.66;5071917;28;20035;-75
2023/02/04 04:08:34;;;;;;;44.92;24.65;;;;;;;2.38;100.00;101025.97;5070725;28;20028;-75
2023/02/04 04:11:00;;;;;;;51.05;24.92;;;;;;;2.41;100.00;101041.25;5089064;28;20101;-75
2023/02/04 04:13:25;;;;;;;46.00;25.27;;;;;;;2.31;100.00;101026.31;5089254;28;20428;-75
2023/02/04 04:15:51;;;;;;;43.00;24.50;;;;;;;2.19;100.00;101032.06;5062120;28;20020;-75
2023/02/04 04:18:16;;;;;;;47.63;25.00;;;;;;;2.37;100.00;101042.31;5090122;28;20115;-75
2023/02/04 04:20:42;;;;;;;45.78;25.35;;;;;;;2.43;100.00;101024.00;5089501;28;20036;-75
2023/02/04 04:23:07;;;;;;;48.65;24.77;;;;;;;2.46;100.00;101014.38;5063772;28;20035;-74
2023/02/04 04:25:33;;;;;;;49.85;27.05;;;;;;;2.46;100.00;101034.97;5089177;28;20467;-75
2023/02/04 04:27:58;;;;;;;47.90;25.70;;;;;;;2.52;100.00;101031.25;5071393;28;20040;-75
2023/02/04 04:30:24;;;;;;;43.30;23.98;;;;;;;2.62;100.00;101019.56;5087228;28;20032;-75
2023/02/04 04:32:49;;;;;;;43.20;23.50;;;;;;;2.66;100.00;101027.03;5071624;28;20130;-75
2023/02/04 04:35:15;;;;;;;44.28;25.10;;;;;;;2.59;100.00;101005.13;5089583;28;20565;-75
2023/02/04 04:37:40;;;;;;;45.45;25.00;;;;;;;2.48;100.00;100997.13;5070653;28;20105;-75
2023/02/04 04:40:06;;;;;;;43.00;23.52;;;;;;;2.49;100.00;100987.66;5088219;28;20028;-75
2023/02/04 04:42:31;;;;;;;37.60;21.67;;;;;;;2.51;100.00;100991.81;5088589;28;20020;-75
2023/02/04 04:44:57;;;;;;;37.00;20.65;;;;;;;2.67;100.00;100981.56;5065793;28;20122;-74
2023/02/04 04:47:22;;;;;;;33.97;19.52;;;;;;;2.71;100.00;100972.78;5088276;28;20563;-75
2023/02/04 04:49:48;;;;;;;38.72;21.27;;;;;;;2.67;100.00;100976.41;5083421;28;20088;-74
2023/02/04 04:52:13;;;;;;;36.72;20.63;;;;;;;2.61;100.00;100993.00;5089193;28;20524;-75
2023/02/04 04:54:39;;;;;;;44.83;22.70;;;;;;;2.55;100.00;100983.03;5084392;28;20100;-76
2023/02/04 04:57:04;;;;;;;35.92;20.85;;;;;;;2.57;100.00;100942.63;5070878;28;20032;-75
2023/02/04 04:59:30;;;;;;;39.10;22.42;;;;;;;2.36;100.00;100960.94;5088423;28;20028;-75
2023/02/04 05:01:56;;;;;;;41.85;22.55;;;;;;;2.15;100.00;100978.31;5069402;28;20127;-75
2023/02/04 05:04:21;;;;;;;44.40;23.48;;;;;;;2.07;100.00;100976.13;5089214;28;20142;-74
2023/02/04 05:06:46;;;;;;;35.60;21.35;;;;;;;1.96;100.00;100979.22;5088514;28;20054;-76
2023/02/04 05:09:14;;;;;;;37.40;20.67;;;;;;;1.84;100.00;100987.56;5070669;28;20068;-75
2023/02/04 05:11:39;;;;;;;43.20;23.15;;;;;;;1.70;100.00;100982.28;5086635;28;20119;-75
2023/02/04 05:14:05;;;;;;;42.58;25.17;;;;;;;1.46;100.00;100986.84;5070853;28;20116;-75
2023/02/04 05:16:30;;;;;;;44.85;24.42;;;;;;;1.37;100.00;100974.50;5085134;28;20024;-75
2023/02/04 05:18:55;;;;;;;50.28;27.30;;;;;;;1.30;100.00;100978.25;5069085;28;20035;-74
2023/02/04 05:21:21;;;;;;;52.42;26.77;;;;;;;1.30;100.00;100965.41;5088303;28;20036;-75
2023/02/04 05:23:46;;;;;;;44.50;25.27;;;;;;;1.27;100.00;100976.66;5082445;28;20085;-76
2023/02/04 05:26:12;;;;;;;44.80;25.27;;;;;;;1.19;100.00;100986.44;5070752;28;20118;-75
2023/02/04 05:28:38;;;;;;;52.17;27.67;;;;;;;1.15;100.00;100999.50;5088413;28;20032;-75
2023/02/04 05:31:03;;;;;;;48.85;26.58;;;;;;;1.11;100.00;100991.09;5086538;28;20035;-75
2023/02/04 05:33:29;;;;;;;45.08;25.05;;;;;;;1.08;100.00;100992.97;5087806;28;20475;-75
2023/02/04 05:35:54;;;;;;;47.25;26.48;;;;;;;1.02;100.00;101018.94;5069324;28;20040;-76
2023/02/04 05:38:20;;;;;;;49.38;26.17;;;;;;;1.00;100.00;101004.44;5070598;28;20413;-75
2023/02/04 05:40:45;;;;;;;56.00;29.60;;;;;;;0.96;100.00;101008.03;5069162;28;20043;-74
2023/02/04 05:43:11;;;;;;;53.00;27.30;;;;;;;0.92;100.00;101003.16;5073472;28;20036;-75
2023/02/04 05:45:36;;;;;;;53.60;28.00;;;;;;;1.00;100.00;101001.03;5091342;28;20028;-75
2023/02/04 05:48:02;;;;;;;53.10;27.55;;;;;;;1.15;100.00;100995.19;5074486;28;20067;-75
2023/02/04 05:50:27;;;;;;;56.47;28.48;;;;;;;1.24;100.00;100988.81;5091550;28;20040;-75
2023/02/04 05:52:53;;;;;;;52.53;27.38;;;;;;;1.18;100.00;100991.66;5090311;28;20036;-75
2023/02/04 05:55:18;;;;;;;50.40;26.50;;;;;;;1.07;100.00;100991.31;5085437;28;20055;-75
2023/02/04 05:57:44;;;;;;;52.58;27.52;;;;;;;0.95;100.00;100993.53;5073607;28;20087;-75
2023/02/04 06:00:11;;;;;;;51.33;27.55;;;;;;;0.95;100.00;100993.53;5091072;28;20028;-75
2023/02/04 06:02:36;;;;;;;49.60;26.23;;;;;;;0.91;100.00;100984.34;5090068;28;20106;-75
2023/02/04 06:05:02;;;;;;;46.78;26.50;;;;;;;0.80;100.00;100993.44;5092550;28;20058;-75
2023/02/04 06:07:27;;;;;;;44.22;27.35;;;;;;;0.71;100.00;100993.84;5091354;28;20083;-74
2023/02/04 06:09:53;;;;;;;52.25;27.95;;;;;;;0.65;100.00;101005.22;5070845;28;20110;-76
2023/02/04 06:12:18;;;;;;;48.25;26.73;;;;;;;0.60;100.00;101012.28;5070235;28;20046;-75
2023/02/04 06:14:44;;;;;;;61.58;29.75;;;;;;;0.59;100.00;101011.44;5060278;28;20127;-76
2023/02/04 06:17:09;;;;;;;55.00;29.20;;;;;;;0.68;100.00;101009.38;5078345;28;20094;-75
2023/02/04 06:19:35;;;;;;;49.30;27.23;;;;;;;0.63;100.00;101010.41;5071616;28;20043;-75
2023/02/04 06:22:01;;;;;;;54.42;29.20;;;;;;;0.68;100.00;101019.63;5092396;28;20031;-75
2023/02/04 06:24:26;;;;;;;48.63;26.95;;;;;;;0.64;100.00;101018.94;5090501;28;20106;-75
2023/02/04 06:26:51;;;;;;;53.20;27.30;;;;;;;0.64;100.00;101009.50;5092174;28;20024;-75
2023/02/04 06:29:17;;;;;;;58.30;28.55;;;;;;;0.98;100.00;101018.22;5092321;28;20039;-75
2023/02/04 06:31:45;;;;;;;52.30;26.92;;;;;;;1.16;100.00;101019.13;5065772;28;20039;-75
2023/02/04 06:34:11;;;;;;;52.90;25.27;;;;;;;1.30;100.00;101020.16;5091976;28;20035;-75
2023/02/04 06:36:36;;;;;;;45.30;24.20;;;;;;;1.46;100.00;101024.53;5085584;28;20036;-75
2023/02/04 06:39:02;;;;;;;42.95;22.80;;;;;;;1.42;100.00;101039.25;5091981;28;20028;-76
2023/02/04 06:41:27;;;;;;;46.38;23.45;;;;;;;1.40;100.00;101030.84;5091261;28;20116;-75
2023/02/04 06:43:53;;;;;;;43.58;22.35;;;;;;;1.42;100.00;101036.69;5091719;28;20061;-75
2023/02/04 06:46:18;;;;;;;43.75;24.05;;;;;;;1.37;100.00;101036.13;5087699;28;20812;-76
2023/02/04 06:48:44;;;;;;;42.85;23.25;;;;;;;1.49;100.00;101044.94;5071915;28;20032;-74
2023/02/04 06:51:09;;;;;;;46.90;24.08;;;;;;;1.65;100.00;101040.75;5091866;28;20085;-74
2023/02/04 06:53:35;;;;;;;46.58;24.98;;;;;;;1.91;100.00;101047.19;5089225;28;20080;-73
2023/02/04 06:56:00;;;;;;;47.55;25.25;;;;;;;2.03;100.00;101049.16;5090226;28;20410;-74
2023/02/04 06:58:26;;;;;;;42.20;23.35;;;;;;;2.00;100.00;101057.00;5090068;28;20039;-74
2023/02/04 07:00:51;;;;;;;44.38;23.73;;;;;;;1.97;100.00;101052.03;5090426;28;20024;-74
2023/02/04 07:03:17;;;;;;;44.50;24.10;;;;;;;1.96;100.00;101047.78;5089980;28;20032;-75
2023/02/04 07:05:42;;;;;;;43.88;22.85;;;;;;;2.02;100.00;101049.22;5072037;28;20042;-74
2023/02/04 07:08:08;;;;;;;43.75;23.70;;;;;;;1.98;100.00;101039.09;5080981;28;20142;-74
2023/02/04 07:10:33;;;;;;;43.08;23.48;;;;;;;1.96;100.00;101047.78;5086193;28;20044;-74
2023/02/04 07:12:58;;;;;;;42.45;23.48;;;;;;;1.87;100.00;101054.25;5067664;28;20164;-75
2023/02/04 07:15:24;;;;;;;40.95;23.23;;;;;;;1.84;100.00;101049.25;5086544;28;20406;-74
2023/02/04 07:17:50;;;;;;;43.45;24.15;;;;;;;1.93;100.00;101050.50;5088454;28;20039;-74
2023/02/04 07:20:16;;;;;;;42.55;22.63;;;;;;;2.02;100.00;101049.22;5086763;28;20020;-75
2023/02/04 07:22:41;;;;;;;39.20;21.95;;;;;;;2.06;100.00;101036.16;5065084;28;20360;-75
2023/02/04 07:25:08;;;;;;;38.28;19.67;;;;;;;2.24;100.00;101049.84;5090186;28;20110;-74
2023/02/04 07:27:34;;;;;;;29.08;17.23;;;;;;;2.45;100.00;101047.88;5089797;28;20040;-75
2023/02/04 07:30:00;;;;;;;28.02;16.17;;;;;;;2.62;100.00;101048.69;5089588;28;20036;-75
2023/02/04 07:32:26;;;;;;;28.05;16.25;;;;;;;2.72;100.00;101059.34;5069989;28;20028;-75
2023/02/04 07:34:52;;;;;;;27.60;15.90;;;;;;;2.79;100.00;101041.84;5067816;28;20483;-75
2023/02/04 07:37:19;;;;;;;26.77;15.13;;;;;;;2.79;100.00;101057.28;5087304;28;20548;-75
2023/02/04 07:39:45;;;;;;;30.83;18.13;;;;;;;2.74;100.00;101047.22;5071439;28;20035;-75
2023/02/04 07:42:10;;;;;;;29.73;17.27;;;;;;;2.69;100.00;101056.94;5069614;28;20182;-75
2023/02/04 07:44:36;;;;;;;32.40;19.40;;;;;;;2.69;100.00;101062.06;5089207;28;20107;-76
2023/02/04 07:47:02;;;;;;;35.58;20.42;;;;;;;2.64;100.00;101058.91;5067983;28;20123;-76
2023/02/04 07:49:27;;;;;;;42.78;26.00;;;;;;;2.63;100.00;101063.22;5088775;28;20028;-75
2023/02/04 07:51:53;;;;;;;48.72;25.15;;;;;;;2.65;100.00;101060.56;5089909;28;20023;-75
2023/02/04 07:54:18;;;;;;;48.47;27.33;;;;;;;2.66;100.00;101067.38;5085375;28;20047;-75
2023/02/04 07:56:44;;;;;;;48.15;25.83;;;;;;;2.65;100.00;101066.56;5070803;28;20055;-74
2023/02/04 07:59:09;;;;;;;46.67;25.80;;;;;;;2.70;100.00;101074.03;5089574;28;20063;-75
2023/02/04 08:01:35;;;;;;;44.42;24.85;;;;;;;2.75;100.00;101069.47;5065394;28;20039;-74
2023/02/04 08:04:01;;;;;;;45.65;24.75;;;;;;;2.82;100.00;101078.53;5066271;28;20051;-74
2023/02/04 08:06:26;;;;;;;47.03;25.15;;;;;;;2.85;100.00;101070.63;5070602;28;20024;-74
2023/02/04 08:08:52;;;;;;;44.75;24.08;;;;;;;2.93;100.00;101083.09;5066683;28;20036;-75
2023/02/04 08:11:17;;;;;;;38.60;22.17;;;;;;;2.99;100.00;101070.75;5086577;28;20108;-74
2023/02/04 08:13:43;;;;;;;43.25;25.33;;;;;;;3.10;100.00;101072.75;5066137;28;20042;-73
2023/02/04 08:16:08;;;;;;;42.88;26.33;;;;;;;3.15;100.00;101068.19;5082730;28;20359;-73
2023/02/04 08:18:33;;;;;;;47.95;26.10;;;;;;;3.22;100.00;101072.09;5094714;28;20020;-72
2023/02/04 08:21:00;;;;;;;39.42;23.55;;;;;;;3.27;100.00;101077.00;5083602;28;20023;-73
2023/02/04 08:23:26;;;;;;;44.90;23.88;;;;;;;3.33;100.00;101074.06;5075843;28;20543;-74
2023/02/04 08:25:51;;;;;;;39.83;23.52;;;;;;;3.38;100.00;101087.53;5099416;28;20036;-73
2023/02/04 08:28:17;;;;;;;38.83;22.55;;;;;;;3.46;100.00;101092.28;5093172;28;20032;-72
2023/02/04 08:30:42;;;;;;;33.28;21.67;;;;;;;3.60;100.00;101100.91;5104205;28;19969;-72
2023/02/04 08:33:08;;;;;;;28.40;16.48;;;;;;;3.78;100.00;101101.63;5083830;28;20031;-73
2023/02/04 08:35:33;;;;;;;28.45;16.65;;;;;;;3.93;100.00;101093.03;5086132;28;20035;-71
2023/02/04 08:37:59;;;;;;;26.10;15.88;;;;;;;4.05;100.00;101088.94;5078582;28;20033;-72
2023/02/04 08:40:24;;;;;;;24.67;14.52;;;;;;;4.23;100.00;101087.88;5096860;28;20073;-73
2023/02/04 08:42:50;;;;;;;24.55;14.65;;;;;;;4.36;100.00;101087.16;5085258;28;20122;-73
2023/02/04 08:45:15;;;;;;;22.75;14.25;;;;;;;4.44;100.00;101093.53;5089598;28;20057;-73
2023/02/04 08:47:41;;;;;;;22.23;14.38;;;;;;;4.50;100.00;101095.75;5087081;28;20055;-73
2023/02/04 08:50:08;;;;;;;24.98;14.23;;;;;;;4.62;100.00;101084.72;5081869;28;20036;-72
2023/02/04 08:52:33;;;;;;;25.95;15.23;;;;;;;4.65;100.00;101083.69;5089067;28;20547;-73
2023/02/04 08:54:59;;;;;;;29.20;16.77;;;;;;;4.68;100.00;101091.25;5088572;28;20139;-71
2023/02/04 08:57:24;;;;;;;21.35;12.57;;;;;;;4.87;100.00;101098.72;5074068;28;20123;-73
2023/02/04 08:59:50;;;;;;;21.92;13.95;;;;;;;5.04;100.00;101079.63;5073995;28;20027;-73
2023/02/04 09:02:15;;;;;;;24.77;13.43;;;;;;;5.06;100.00;101078.59;5087308;28;20435;-73
2023/02/04 09:04:41;;;;;;;23.67;15.20;;;;;;;5.11;100.00;101091.22;5089689;28;20135;-73
2023/02/04 09:07:06;;;;;;;27.02;15.73;;;;;;;5.31;100.00;101085.66;5095238;28;20038;-73
2023/02/04 09:09:32;;;;;;;22.75;15.30;;;;;;;5.27;100.00;101090.16;5075497;28;20123;-73
2023/02/04 09:11:57;;;;;;;20.13;11.60;;;;;;;5.31;100.00;101103.72;5095163;28;20031;-73
2023/02/04 09:14:22;;;;;;;19.95;11.07;;;;;;;5.65;100.00;101107.63;5086597;28;20478;-73
2023/02/04 09:16:48;;;;;;;20.05;11.50;;;;;;;5.88;100.00;101109.56;5095171;28;20032;-73
2023/02/04 09:19:15;;;;;;;18.98;11.23;;;;;;;5.88;100.00;101103.56;5096761;28;20023;-73
2023/02/04 09:21:41;;;;;;;17.25;11.07;;;;;;;5.93;100.00;101096.38;5100719;28;20035;-74
2023/02/04 09:24:07;;;;;;;16.17;10.63;;;;;;;6.06;100.00;101097.22;5083424;28;20038;-73
2023/02/04 09:26:32;;;;;;;16.33;10.15;;;;;;;6.13;100.00;101097.66;5085456;28;20379;-74
2023/02/04 09:28:58;;;;;;;18.17;9.20;;;;;;;6.12;100.00;101104.59;5099469;28;20035;-73
2023/02/04 09:31:23;;;;;;;15.82;8.63;;;;;;;6.29;100.00;101091.34;5077484;28;20032;-73
2023/02/04 09:33:49;;;;;;;18.45;10.77;;;;;;;6.57;100.00;101102.47;5094155;28;20032;-73
2023/02/04 09:36:14;;;;;;;16.20;11.65;;;;;;;6.59;100.00;101091.06;5096495;28;20431;-72
2023/02/04 09:38:40;;;;;;;17.50;10.02;;;;;;;6.51;100.00;101089.94;5079851;28;20024;-73
2023/02/04 09:41:08;;;;;;;19.52;10.60;;;;;;;6.60;100.00;101099.66;5094801;28;20123;-72
2023/02/04 09:43:37;;;;;;;20.85;12.35;;;;;;;6.82;100.00;101102.44;5087055;28;20028;-74
2023/02/04 09:46:03;;;;;;;18.38;11.23;;;;;;;6.92;100.00;101107.81;5088350;28;20078;-74
2023/02/04 09:48:28;;;;;;;18.15;10.98;;;;;;;6.83;100.00;101113.63;5085097;28;20059;-74
2023/02/04 09:51:05;;;;;;;16.63;9.90;;;;;;;6.73;100.00;101112.59;5064122;28;20113;-74
2023/02/04 09:53:31;;;;;;;18.60;11.02;;;;;;;6.79;100.00;101122.53;5079414;28;20035;-73
2023/02/04 09:55:57;;;;;;;18.30;11.05;;;;;;;6.83;100.00;101124.00;5089285;28;20028;-73
2023/02/04 09:58:28;;;;;;;15.95;10.43;;;;;;;6.84;100.00;101131.66;5066891;28;20044;-74
2023/02/04 10:01:16;;;;;;;18.75;10.25;;;;;;;6.80;100.00;101122.44;5089567;28;20126;-73
2023/02/04 10:03:49;;;;;;;17.40;8.30;;;;;;;6.86;100.00;101137.56;5091991;28;20040;-73
2023/02/04 10:06:19;;;;;;;16.58;9.82;;;;;;;7.00;100.00;101139.22;5088834;28;20579;-73
2023/02/04 10:08:47;;;;;;;19.38;11.85;;;;;;;7.16;100.00;101145.00;5067662;28;20035;-74
2023/02/04 10:11:15;;;;;;;15.90;10.82;;;;;;;7.25;100.00;101139.16;5061447;28;20036;-74
2023/02/04 10:13:52;;;;;;;17.27;10.20;;;;;;;7.21;100.00;101136.91;5077021;28;20120;-69
2023/02/04 10:16:30;;;;;;;15.63;11.23;;;;;;;7.23;100.00;101130.66;5070726;28;20502;-69
2023/02/04 10:19:02;;;;;;;16.27;9.95;;;;;;;7.29;100.00;101121.63;5084646;28;20028;-70
2023/02/04 10:21:31;;;;;;;20.70;11.30;;;;;;;7.39;100.00;101127.84;5071881;28;20486;-70
2023/02/04 10:24:00;;;;;;;16.00;10.05;;;;;;;7.37;100.00;101129.72;5091195;28;20474;-70
2023/02/04 10:26:28;;;;;;;23.98;11.68;;;;;;;7.41;100.00;101133.75;5092479;28;20044;-71
2023/02/04 10:29:01;;;;;;;22.65;12.25;;;;;;;7.49;100.00;101123.66;5101311;28;20043;-70
2023/02/04 10:31:36;;;;;;;24.33;11.60;;;;;;;7.50;100.00;101114.97;5103545;28;20120;-73
2023/02/04 10:34:19;;;;;;;16.58;10.40;;;;;;;7.61;100.00;101114.16;5067046;28;20024;-73
2023/02/04 10:36:51;;;;;;;19.67;11.77;;;;;;;7.71;100.00;101122.13;5085051;28;20117;-73
2023/02/04 10:39:19;;;;;;;18.80;12.30;;;;;;;7.69;100.00;101114.44;5108647;28;20069;-73
2023/02/04 10:41:51;;;;;;;24.83;14.82;;;;;;;7.66;100.00;101123.28;5102043;28;20023;-73
2023/02/04 10:44:27;;;;;;;18.63;12.18;;;;;;;7.82;98.40;101119.59;5103973;28;20420;-74
2023/02/04 10:47:17;;;;;;;21.45;11.13;;;;;;;7.87;97.11;101112.31;5086320;28;20031;-74
2023/02/04 10:50:05;;;;;;;17.52;9.63;;;;;;;8.02;95.40;101111.19;5064432;28;20063;-74
2023/02/04 10:52:44;;;;;;;13.02;7.75;;;;;;;8.13;94.31;101105.19;5075222;28;20031;-74
2023/02/04 10:55:15;;;;;;;14.52;9.13;;;;;;;8.14;95.81;101110.28;5065300;28;20048;-74
2023/02/04 10:57:44;;;;;;;13.43;8.55;;;;;;;8.10;96.52;101114.03;5074529;28;20035;-75
2023/02/04 11:00:24;;;;;;;18.38;7.90;;;;;;;8.19;93.16;101112.53;5076081;28;20024;-74
2023/02/04 11:03:00;;;;;;;16.42;8.65;;;;;;;8.27;94.41;101118.81;5075106;28;20470;-75
2023/02/04 11:05:32;;;;;;;16.65;8.40;;;;;;;8.38;94.37;101122.41;5075525;28;20562;-75
2023/02/04 11:07:58;;;;;;;13.10;9.40;;;;;;;8.40;94.88;101126.56;5097040;28;20077;-74